Time;durP1;ratioP1;P1;durP2;ratioP2;P2;SDS_P1;SDS_P2;PMS_P1;PMS_P2;Temp;Humidity;BMP_temperature;BMP_pressure;BME280_temperature;BME280_humidity;BME280_pressure;Samples;Min_cycle;Max_cycle;Signal;HPM_P1;HPM_P2
2022/10/22 00:01:08;;;;;;;49.33;28.05;;;;;;;9.48;65.45;96060.44;5026219;28;20096;-77
2022/10/22 00:03:33;;;;;;;53.78;27.55;;;;;;;9.56;65.58;96066.13;5035484;28;20047;-77
2022/10/22 00:05:59;;;;;;;52.00;27.85;;;;;;;9.66;65.62;96076.88;5035393;28;20041;-77
2022/10/22 00:08:24;;;;;;;52.35;28.63;;;;;;;9.69;66.01;96094.91;5036748;28;20037;-77
2022/10/22 00:10:50;;;;;;;54.10;28.75;;;;;;;9.82;65.35;96114.16;5034103;28;20051;-78
2022/10/22 00:13:15;;;;;;;45.72;27.15;;;;;;;9.44;65.20;96064.66;5034493;28;20522;-78
2022/10/22 00:15:41;;;;;;;53.55;27.67;;;;;;;9.44;66.12;96065.44;5036569;28;20134;-78
2022/10/22 00:18:06;;;;;;;53.25;28.60;;;;;;;9.71;65.73;96123.00;5036902;28;20500;-78
2022/10/22 00:20:31;;;;;;;52.60;27.25;;;;;;;9.32;65.50;96054.16;5034633;28;20419;-77
2022/10/22 00:22:58;;;;;;;52.33;27.30;;;;;;;9.38;65.85;96065.63;5036870;28;20076;-78
2022/10/22 00:25:23;;;;;;;55.47;28.23;;;;;;;9.55;65.77;96093.66;5035055;28;20144;-78
2022/10/22 00:27:48;;;;;;;48.45;27.70;;;;;;;9.67;65.61;96117.41;5035333;28;20515;-77
2022/10/22 00:30:14;;;;;;;52.15;28.33;;;;;;;9.54;66.25;96113.22;5035178;28;20562;-76
2022/10/22 00:32:39;;;;;;;49.17;27.20;;;;;;;9.43;66.57;96085.03;5034747;28;20125;-77
2022/10/22 00:35:06;;;;;;;52.22;28.08;;;;;;;9.16;66.14;96033.81;5036610;28;20037;-77
2022/10/22 00:37:31;;;;;;;48.55;27.15;;;;;;;9.38;65.86;96069.09;5035732;28;20095;-78
2022/10/22 00:39:57;;;;;;;52.85;27.65;;;;;;;9.03;66.24;96019.06;5036702;28;20049;-78
2022/10/22 00:42:25;;;;;;;51.22;25.85;;;;;;;9.22;66.04;96057.47;5036428;28;20138;-78
2022/10/22 00:45:26;;;;;;;45.60;26.98;;;;;;;9.46;66.47;96095.09;5035780;28;20497;-77
2022/10/22 00:47:58;;;;;;;52.95;28.40;;;;;;;9.45;66.13;96093.53;5010358;28;20114;-78
2022/10/22 00:50:26;;;;;;;54.25;29.23;;;;;;;9.43;66.45;96098.25;5034793;28;20076;-77
2022/10/22 00:52:53;;;;;;;50.95;28.25;;;;;;;9.05;67.04;96054.03;5036423;28;20044;-77
2022/10/22 00:55:20;;;;;;;48.38;27.58;;;;;;;9.39;67.08;96102.44;5036110;28;20029;-78
2022/10/22 00:57:46;;;;;;;53.72;27.00;;;;;;;8.81;67.09;96016.38;5030993;28;20041;-78
2022/10/22 01:00:12;;;;;;;48.75;27.60;;;;;;;9.40;66.96;96092.63;5036665;28;20523;-78
2022/10/22 01:02:37;;;;;;;48.38;25.73;;;;;;;9.39;66.66;96089.19;5035293;28;20087;-78
2022/10/22 01:05:03;;;;;;;42.20;26.13;;;;;;;8.73;66.41;95982.41;5036742;28;20048;-78
2022/10/22 01:07:29;;;;;;;59.13;27.23;;;;;;;9.11;66.88;96034.53;5034705;28;20040;-78
2022/10/22 01:10:16;;;;;;;44.20;27.10;;;;;;;9.04;66.77;96022.53;5035813;28;20066;-78
2022/10/22 01:12:52;;;;;;;51.22;25.23;;;;;;;9.11;66.72;96034.53;5034580;28;20411;-78
2022/10/22 01:15:51;;;;;;;50.78;26.85;;;;;;;9.26;66.76;96055.94;5031150;28;20041;-78
2022/10/22 01:18:28;;;;;;;45.50;26.90;;;;;;;9.14;66.54;96049.94;5017397;28;20049;-77
2022/10/22 01:21:12;;;;;;;52.80;27.23;;;;;;;9.21;66.92;96063.81;5017138;28;20037;-77
2022/10/22 01:23:37;;;;;;;48.55;27.20;;;;;;;9.19;67.12;96065.88;5033424;28;20431;-78
2022/10/22 01:26:03;;;;;;;46.70;26.60;;;;;;;9.17;67.14;96057.38;5039861;28;20351;-77
2022/10/22 01:28:47;;;;;;;50.60;28.63;;;;;;;9.14;66.73;96052.59;5018404;28;20800;-77
2022/10/22 01:31:15;;;;;;;49.20;26.60;;;;;;;9.17;67.20;96054.75;5019832;28;20048;-77
2022/10/22 01:33:43;;;;;;;55.08;27.38;;;;;;;9.02;66.77;96033.34;5019514;28;20037;-77
2022/10/22 01:36:11;;;;;;;48.80;27.15;;;;;;;8.89;67.26;95997.47;5028082;28;20040;-77
2022/10/22 01:38:38;;;;;;;55.45;26.80;;;;;;;8.77;66.95;95978.22;5037609;28;20086;-78
2022/10/22 01:41:05;;;;;;;55.08;27.40;;;;;;;8.67;66.41;95956.13;5037489;28;20037;-78
2022/10/22 01:43:30;;;;;;;45.90;27.45;;;;;;;9.01;66.58;96012.41;5039138;28;20040;-76
2022/10/22 01:46:00;;;;;;;46.85;26.02;;;;;;;8.76;66.99;95976.66;5040930;28;20037;-76
2022/10/22 01:48:33;;;;;;;48.75;27.00;;;;;;;9.09;66.82;96028.69;5039517;28;20064;-75
2022/10/22 01:51:17;;;;;;;54.75;28.02;;;;;;;9.16;66.79;96039.09;5040878;28;20083;-76
2022/10/22 01:54:27;;;;;;;50.63;28.02;;;;;;;9.13;66.83;96034.31;5040286;28;20558;-76
2022/10/22 01:57:14;;;;;;;48.35;27.42;;;;;;;8.65;67.10;95961.66;5040833;28;20872;-76
2022/10/22 01:59:56;;;;;;;52.33;26.55;;;;;;;8.64;67.10;95972.47;5039242;28;20044;-76
2022/10/22 02:02:34;;;;;;;49.95;27.85;;;;;;;9.14;67.25;96039.38;5038680;28;20127;-75
2022/10/22 02:05:08;;;;;;;49.15;28.25;;;;;;;8.69;66.96;95977.84;5039873;28;20044;-75
2022/10/22 02:07:53;;;;;;;52.95;27.95;;;;;;;9.10;66.79;96048.81;5038215;28;20037;-75
2022/10/22 02:10:19;;;;;;;47.80;28.42;;;;;;;8.89;66.45;96023.09;5040589;28;20045;-75
2022/10/22 02:12:49;;;;;;;48.13;28.10;;;;;;;8.63;66.59;95976.94;5047525;28;20482;-75
2022/10/22 02:15:16;;;;;;;55.45;28.10;;;;;;;8.68;67.55;95994.75;5041476;28;20101;-75
2022/10/22 02:17:44;;;;;;;48.67;27.80;;;;;;;9.01;67.33;96044.16;5042015;28;20064;-77
2022/10/22 02:20:26;;;;;;;56.17;28.20;;;;;;;8.82;66.98;96009.25;5060538;28;20045;-75
2022/10/22 02:22:52;;;;;;;55.60;27.40;;;;;;;8.31;67.25;95946.84;5060276;28;20047;-75
2022/10/22 02:25:20;;;;;;;49.42;28.10;;;;;;;8.42;67.81;95957.34;5059535;28;20446;-75
2022/10/22 02:27:53;;;;;;;51.70;28.13;;;;;;;8.78;67.27;96014.22;5041577;28;20098;-75
2022/10/22 02:30:21;;;;;;;50.30;26.15;;;;;;;8.43;67.27;95961.59;5040684;28;20086;-76
2022/10/22 02:32:56;;;;;;;47.85;26.20;;;;;;;8.52;67.51;95993.72;5037686;28;20051;-76
2022/10/22 02:35:24;;;;;;;55.47;27.63;;;;;;;8.59;67.41;96007.56;5017924;28;20514;-76
2022/10/22 02:37:52;;;;;;;65.82;27.00;;;;;;;8.50;67.67;95990.50;5016345;28;20430;-76
2022/10/22 02:40:18;;;;;;;54.70;26.70;;;;;;;8.84;67.67;96047.66;5029949;28;20060;-75
2022/10/22 02:42:46;;;;;;;57.28;27.13;;;;;;;8.86;67.60;96048.19;5029944;28;20148;-76
2022/10/22 02:45:12;;;;;;;45.25;25.70;;;;;;;8.68;67.52;96037.06;5037936;28;20049;-76
2022/10/22 02:47:38;;;;;;;46.15;25.05;;;;;;;8.35;67.63;95984.97;5026496;28;20059;-76
2022/10/22 02:50:04;;;;;;;47.95;27.02;;;;;;;8.47;67.79;96020.84;5037739;28;20051;-76
2022/10/22 02:52:29;;;;;;;50.17;28.27;;;;;;;8.46;67.68;96008.69;5039426;28;20052;-76
2022/10/22 02:54:54;;;;;;;51.83;28.15;;;;;;;8.21;68.02;95960.66;5055430;28;20044;-76
2022/10/22 02:57:20;;;;;;;44.90;26.58;;;;;;;8.55;67.64;96016.22;5059846;28;20587;-76
2022/10/22 02:59:45;;;;;;;56.13;27.60;;;;;;;8.50;67.69;96012.44;5059270;28;20129;-75
2022/10/22 03:02:11;;;;;;;48.65;25.48;;;;;;;8.28;67.45;95965.78;5059471;28;20143;-76
2022/10/22 03:04:36;;;;;;;45.45;25.80;;;;;;;8.80;67.81;96053.66;5041219;28;20488;-75
2022/10/22 03:07:02;;;;;;;51.42;26.15;;;;;;;8.32;67.49;95986.25;5041096;28;20045;-76
2022/10/22 03:09:27;;;;;;;49.72;26.85;;;;;;;8.76;67.29;96049.88;5040388;28;20193;-76
2022/10/22 03:11:53;;;;;;;48.45;26.23;;;;;;;8.57;67.65;96032.63;5054188;28;20075;-76
2022/10/22 03:14:18;;;;;;;49.25;26.05;;;;;;;8.48;67.65;96026.94;5038859;28;20136;-76
2022/10/22 03:16:44;;;;;;;45.35;26.02;;;;;;;8.60;68.20;96046.19;5039103;28;20037;-75
2022/10/22 03:19:09;;;;;;;47.10;26.13;;;;;;;8.57;67.85;96053.78;5039178;28;20041;-75
2022/10/22 03:21:40;;;;;;;49.22;26.40;;;;;;;8.49;67.82;96047.06;5038969;28;20025;-75
2022/10/22 03:24:21;;;;;;;46.60;26.30;;;;;;;7.83;67.89;95942.84;5040470;28;20852;-75
2022/10/22 03:26:49;;;;;;;45.00;26.40;;;;;;;8.28;68.22;96016.81;5041750;28;20102;-75
2022/10/22 03:29:15;;;;;;;50.00;26.08;;;;;;;7.95;68.20;95963.91;5038956;28;20155;-75
2022/10/22 03:31:41;;;;;;;47.28;25.92;;;;;;;8.42;68.26;96039.28;5058642;28;20589;-75
2022/10/22 03:34:07;;;;;;;43.67;25.25;;;;;;;8.04;68.27;95984.41;5020644;28;20044;-75
2022/10/22 03:36:33;;;;;;;48.28;26.85;;;;;;;8.03;68.70;95984.66;5039187;28;20120;-75
2022/10/22 03:39:00;;;;;;;46.10;26.73;;;;;;;8.18;68.31;95998.13;5038892;28;20131;-76
2022/10/22 03:41:26;;;;;;;47.42;26.15;;;;;;;7.99;68.65;95957.94;5038808;28;20094;-76
2022/10/22 03:43:53;;;;;;;46.45;26.48;;;;;;;8.00;68.53;95961.38;5038799;28;20471;-76
2022/10/22 03:46:19;;;;;;;48.95;26.50;;;;;;;8.45;68.40;96030.88;5038688;28;20701;-76
2022/10/22 03:48:44;;;;;;;51.22;26.20;;;;;;;8.36;68.46;96026.22;5020390;28;20037;-76
2022/10/22 03:51:10;;;;;;;46.70;26.73;;;;;;;8.09;68.66;95987.13;5038666;28;20045;-76
2022/10/22 03:53:35;;;;;;;47.83;25.92;;;;;;;8.33;68.43;96024.84;5016930;28;20590;-76
2022/10/22 03:56:01;;;;;;;62.63;27.13;;;;;;;8.49;68.73;96049.69;5031029;28;20849;-76
2022/10/22 03:58:27;;;;;;;51.97;28.02;;;;;;;8.38;68.14;96016.22;5019926;28;20032;-75
2022/10/22 04:00:52;;;;;;;55.35;27.92;;;;;;;8.25;68.53;96000.63;5020727;28;20611;-75
2022/10/22 04:03:17;;;;;;;60.53;28.10;;;;;;;8.01;69.19;95982.25;5017105;28;20045;-75
2022/10/22 04:05:43;;;;;;;50.63;26.98;;;;;;;7.90;69.24;95956.69;5018185;28;20044;-76
2022/10/22 04:08:08;;;;;;;48.42;27.52;;;;;;;8.44;68.65;96039.06;5038497;28;20049;-75
2022/10/22 04:10:34;;;;;;;52.47;27.42;;;;;;;8.47;68.63;96039.34;5038672;28;20082;-76
2022/10/22 04:13:00;;;;;;;49.05;25.95;;;;;;;8.48;68.76;96027.75;5020284;28;20045;-76
2022/10/22 04:15:27;;;;;;;51.53;27.58;;;;;;;8.00;69.14;95978.03;5019809;28;20514;-76
2022/10/22 04:17:52;;;;;;;68.30;36.95;;;;;;;7.89;68.83;95941.09;5027759;28;20069;-76
2022/10/22 04:20:18;;;;;;;65.25;39.95;;;;;;;7.76;68.93;95926.34;5058251;28;20036;-76
2022/10/22 04:22:43;;;;;;;93.55;54.28;;;;;;;8.17;68.79;95972.75;5039631;28;20818;-76
2022/10/22 04:25:09;;;;;;;82.28;49.60;;;;;;;8.04;68.98;95949.28;5058170;28;20044;-76
2022/10/22 04:27:35;;;;;;;69.72;39.33;;;;;;;8.09;68.91;95975.78;5057352;28;20028;-76
2022/10/22 04:30:01;;;;;;;64.82;37.03;;;;;;;7.93;68.76;95923.75;5043953;28;20037;-75
2022/10/22 04:32:27;;;;;;;61.67;34.15;;;;;;;8.14;68.76;95947.63;5019864;28;20087;-75
2022/10/22 04:34:53;;;;;;;71.03;33.72;;;;;;;8.56;69.07;96013.31;5038135;28;20112;-75
2022/10/22 04:37:18;;;;;;;50.15;28.77;;;;;;;7.70;68.57;95877.13;5019370;28;20033;-76
2022/10/22 04:39:44;;;;;;;58.13;27.58;;;;;;;8.21;68.74;95971.25;5035928;28;20045;-75
2022/10/22 04:42:10;;;;;;;45.97;26.48;;;;;;;8.67;68.40;96041.56;5037325;28;20113;-76
2022/10/22 04:44:35;;;;;;;46.70;25.73;;;;;;;8.63;68.28;96029.84;5037084;28;20041;-76
2022/10/22 04:47:01;;;;;;;46.70;25.38;;;;;;;8.27;68.13;95965.00;5036922;28;20047;-75
2022/10/22 04:49:26;;;;;;;48.90;25.65;;;;;;;8.54;67.77;96002.22;5056604;28;20052;-76
2022/10/22 04:51:52;;;;;;;43.65;25.08;;;;;;;8.68;68.11;96019.34;5057170;28;20041;-76
2022/10/22 04:54:17;;;;;;;41.90;24.50;;;;;;;8.37;67.83;95967.84;5056370;28;20039;-76
2022/10/22 04:56:42;;;;;;;40.33;23.13;;;;;;;8.58;67.69;96015.75;5058783;28;20041;-76
2022/10/22 04:59:11;;;;;;;50.22;25.15;;;;;;;8.73;67.48;96040.59;5030644;28;20577;-76
2022/10/22 05:01:39;;;;;;;49.78;23.92;;;;;;;8.46;67.71;95990.19;5010274;28;20813;-76
2022/10/22 05:04:06;;;;;;;43.78;24.40;;;;;;;8.85;67.52;96040.50;5040932;28;20152;-76
2022/10/22 05:06:34;;;;;;;47.83;25.50;;;;;;;8.38;67.12;95964.16;5061008;28;20139;-76
2022/10/22 05:09:03;;;;;;;49.15;25.23;;;;;;;8.58;67.00;95997.22;5060932;28;20040;-75
2022/10/22 05:11:37;;;;;;;57.45;25.35;;;;;;;8.87;67.43;96059.56;5042318;28;20839;-75
2022/10/22 05:14:05;;;;;;;53.88;25.90;;;;;;;8.67;67.22;96065.34;5060480;28;20167;-75
2022/10/22 05:16:31;;;;;;;65.68;24.40;;;;;;;6.86;67.65;95803.06;5037147;28;20048;-76
2022/10/22 05:18:59;;;;;;;48.80;24.60;;;;;;;7.90;67.55;95930.28;5022843;28;20037;-75
2022/10/22 05:21:25;;;;;;;47.20;24.90;;;;;;;8.66;67.51;96060.28;5022485;28;20037;-75
2022/10/22 05:23:52;;;;;;;60.92;26.25;;;;;;;7.84;67.09;95947.09;5020796;28;20033;-76
2022/10/22 05:26:19;;;;;;;65.25;27.05;;;;;;;8.37;67.19;96006.69;5022990;28;20083;-75
2022/10/22 05:28:46;;;;;;;59.88;26.48;;;;;;;8.82;66.59;96049.72;5019702;28;20053;-76
2022/10/22 05:31:12;;;;;;;47.50;25.88;;;;;;;8.85;66.22;96059.81;5031232;28;20112;-77
2022/10/22 05:33:38;;;;;;;51.47;24.73;;;;;;;8.55;66.75;96011.72;5041111;28;20059;-76
2022/10/22 05:36:05;;;;;;;57.40;26.77;;;;;;;8.38;66.12;95998.53;5028898;28;20044;-77
2022/10/22 05:38:34;;;;;;;54.13;28.10;;;;;;;8.48;66.70;96029.59;5035545;28;20048;-76
2022/10/22 05:41:01;;;;;;;59.15;28.13;;;;;;;8.80;67.18;96070.31;5018782;28;20098;-76
2022/10/22 05:43:27;;;;;;;63.50;28.48;;;;;;;8.61;66.42;96025.84;5037909;28;20064;-75
2022/10/22 05:45:52;;;;;;;56.05;26.58;;;;;;;7.92;66.29;95916.84;5021959;28;20037;-75
2022/10/22 05:48:17;;;;;;;52.72;27.27;;;;;;;8.84;66.20;96057.44;5040149;28;20405;-75
2022/10/22 05:50:45;;;;;;;51.58;27.58;;;;;;;8.97;65.69;96067.69;5039241;28;20128;-76
2022/10/22 05:53:11;;;;;;;56.85;26.15;;;;;;;9.02;66.42;96070.38;5031660;28;20049;-75
2022/10/22 05:55:39;;;;;;;68.30;28.33;;;;;;;8.64;66.37;96006.84;5037594;28;20048;-75
2022/10/22 05:58:05;;;;;;;50.60;26.27;;;;;;;9.03;66.44;96069.34;5045575;28;20040;-75
2022/10/22 06:00:30;;;;;;;51.95;26.55;;;;;;;9.06;66.24;96068.88;5059923;28;20044;-75
2022/10/22 06:02:56;;;;;;;52.25;25.20;;;;;;;9.12;65.90;96067.09;5059476;28;20102;-76
2022/10/22 06:05:21;;;;;;;46.15;23.83;;;;;;;8.61;66.24;95989.63;5059327;28;20032;-76
2022/10/22 06:07:47;;;;;;;47.60;24.95;;;;;;;8.78;65.92;96013.41;5039954;28;20040;-76
2022/10/22 06:10:18;;;;;;;55.17;27.05;;;;;;;9.16;66.33;96076.16;5060318;28;20118;-75
2022/10/22 06:12:45;;;;;;;47.38;24.88;;;;;;;8.99;65.91;96040.97;5041551;28;20039;-75
2022/10/22 06:15:13;;;;;;;50.65;25.38;;;;;;;8.94;65.88;96032.94;5038082;28;20096;-75
2022/10/22 06:17:38;;;;;;;48.53;25.38;;;;;;;9.20;66.46;96072.00;5029082;28;20049;-76
2022/10/22 06:20:04;;;;;;;55.55;24.60;;;;;;;9.10;66.18;96054.09;5018065;28;20139;-76
2022/10/22 06:22:30;;;;;;;43.58;25.05;;;;;;;8.68;65.39;95984.19;5019636;28;20113;-76
2022/10/22 06:24:55;;;;;;;45.55;23.35;;;;;;;9.01;65.39;96041.53;5019429;28;20044;-76
2022/10/22 06:27:20;;;;;;;43.13;24.38;;;;;;;9.03;65.67;96039.44;5022314;28;20037;-76
2022/10/22 06:29:47;;;;;;;42.17;23.10;;;;;;;9.35;65.38;96077.50;5039955;28;20044;-76
2022/10/22 06:32:13;;;;;;;42.97;23.42;;;;;;;9.41;64.66;96079.16;5037669;28;20522;-76
2022/10/22 06:34:38;;;;;;;52.08;26.63;;;;;;;8.50;65.06;95948.19;5039993;28;20045;-76
2022/10/22 06:37:03;;;;;;;52.25;26.67;;;;;;;9.16;65.71;96071.66;5038952;28;20132;-76
2022/10/22 06:39:29;;;;;;;52.83;24.77;;;;;;;8.61;65.66;95978.25;5040071;28;20511;-75
2022/10/22 06:41:54;;;;;;;49.47;26.90;;;;;;;9.14;65.84;96036.72;5038105;28;20118;-75
2022/10/22 06:44:20;;;;;;;62.78;26.48;;;;;;;9.50;65.11;96076.91;5039739;28;20049;-76
2022/10/22 06:46:50;;;;;;;53.17;27.15;;;;;;;9.58;64.55;96071.19;5037742;28;20936;-76
2022/10/22 06:49:16;;;;;;;50.72;27.30;;;;;;;9.02;65.42;95998.94;5040143;28;20037;-75
2022/10/22 06:51:42;;;;;;;58.70;28.38;;;;;;;9.33;65.71;96044.38;5038455;28;20044;-74
2022/10/22 06:54:08;;;;;;;50.13;27.55;;;;;;;9.34;65.49;96038.03;5040428;28;20529;-75
2022/10/22 06:56:34;;;;;;;52.25;28.95;;;;;;;9.59;65.56;96072.78;5022028;28;20124;-76
2022/10/22 06:58:59;;;;;;;54.42;29.58;;;;;;;9.48;64.58;96044.56;5019174;28;20048;-76
2022/10/22 07:01:31;;;;;;;56.50;29.25;;;;;;;9.52;65.16;96053.63;5039414;28;20051;-75
2022/10/22 07:03:57;;;;;;;59.25;29.48;;;;;;;9.14;65.15;95989.09;5034212;28;20077;-75
2022/10/22 07:06:24;;;;;;;57.00;32.30;;;;;;;9.75;65.07;96079.91;5017531;28;20250;-76
2022/10/22 07:08:50;;;;;;;58.97;29.38;;;;;;;9.86;65.23;96083.44;5017465;28;20037;-75
2022/10/22 07:11:22;;;;;;;51.88;30.08;;;;;;;9.89;65.50;96065.22;5019136;28;20232;-76
2022/10/22 07:13:48;;;;;;;51.55;30.05;;;;;;;9.73;64.63;96036.94;5017845;28;20439;-76
2022/10/22 07:16:15;;;;;;;52.67;30.88;;;;;;;9.90;64.79;96042.19;5029216;28;20025;-76
2022/10/22 07:18:41;;;;;;;53.10;31.42;;;;;;;9.95;64.29;96053.63;5036327;28;20044;-76
2022/10/22 07:21:08;;;;;;;57.47;31.20;;;;;;;10.10;64.61;96079.50;5030056;28;20051;-76
2022/10/22 07:23:34;;;;;;;52.95;29.88;;;;;;;10.04;64.61;96073.34;5016950;28;20045;-76
2022/10/22 07:26:01;;;;;;;62.67;31.60;;;;;;;9.67;64.76;96008.81;5034496;28;20463;-76
2022/10/22 07:28:27;;;;;;;46.25;29.13;;;;;;;9.63;64.78;95992.59;5026717;28;20048;-76
2022/10/22 07:30:53;;;;;;;54.00;29.63;;;;;;;10.19;64.48;96053.38;5016948;28;20047;-76
2022/10/22 07:33:19;;;;;;;67.72;32.78;;;;;;;10.03;64.68;96039.13;5033170;28;20049;-76
2022/10/22 07:35:44;;;;;;;55.95;30.25;;;;;;;10.12;64.65;96053.56;5032386;28;20037;-76
2022/10/22 07:38:10;;;;;;;50.95;29.20;;;;;;;9.87;64.69;95987.03;5038382;28;20047;-76
2022/10/22 07:40:36;;;;;;;62.38;30.13;;;;;;;10.40;63.77;96066.59;5036372;28;20519;-76
2022/10/22 07:43:01;;;;;;;53.00;28.33;;;;;;;10.18;63.86;96022.63;5038830;28;20129;-76
2022/10/22 07:45:27;;;;;;;56.03;29.33;;;;;;;10.53;64.27;96052.13;5026252;28;20042;-76
2022/10/22 07:47:52;;;;;;;56.35;30.42;;;;;;;10.25;63.46;96002.03;5018473;28;20099;-76
2022/10/22 07:50:18;;;;;;;58.95;30.52;;;;;;;10.29;63.53;95981.94;5018481;28;20048;-76
2022/10/22 07:52:43;;;;;;;48.00;27.13;;;;;;;10.45;63.70;96026.84;5017929;28;20136;-76
2022/10/22 07:55:09;;;;;;;50.45;30.45;;;;;;;10.47;63.76;96036.41;5028582;28;20040;-76
2022/10/22 07:57:38;;;;;;;58.70;29.45;;;;;;;10.29;63.67;96006.59;5036675;28;20036;-76
2022/10/22 08:00:05;;;;;;;50.15;29.92;;;;;;;10.77;63.39;96055.25;5037493;28;20051;-76
2022/10/22 08:02:32;;;;;;;51.05;30.73;;;;;;;10.47;63.19;96005.41;5036049;28;20049;-76
2022/10/22 08:04:58;;;;;;;54.88;31.95;;;;;;;10.59;62.64;96006.06;5037291;28;20044;-76
2022/10/22 08:07:23;;;;;;;62.20;31.02;;;;;;;10.72;63.63;96024.19;5037606;28;20044;-76
2022/10/22 08:09:49;;;;;;;51.08;29.52;;;;;;;10.89;62.86;96033.88;5036028;28;20045;-76
2022/10/22 08:12:14;;;;;;;56.78;31.08;;;;;;;10.69;62.52;95978.78;5038472;28;20051;-76
2022/10/22 08:14:40;;;;;;;52.90;29.02;;;;;;;11.11;62.41;96024.75;5036420;28;20041;-75
2022/10/22 08:17:05;;;;;;;56.17;29.83;;;;;;;11.04;62.14;96013.53;5037778;28;20111;-76
2022/10/22 08:19:31;;;;;;;64.28;31.02;;;;;;;10.77;62.00;95978.31;5037442;28;20033;-76
2022/10/22 08:21:58;;;;;;;51.05;30.15;;;;;;;11.05;62.01;95998.41;5037625;28;20079;-76
2022/10/22 08:24:25;;;;;;;55.33;30.45;;;;;;;11.23;61.61;96001.44;5037734;28;20094;-76
2022/10/22 08:26:53;;;;;;;54.60;28.95;;;;;;;11.18;61.42;95974.88;5036227;28;20044;-76
2022/10/22 08:29:20;;;;;;;59.80;31.38;;;;;;;11.42;61.33;96009.78;5036370;28;20538;-76
2022/10/22 08:31:46;;;;;;;53.88;30.35;;;;;;;11.48;60.75;96018.56;5036392;28;20029;-76
2022/10/22 08:34:11;;;;;;;58.75;30.95;;;;;;;11.09;61.30;95960.47;5035643;28;20045;-76
2022/10/22 08:36:36;;;;;;;53.80;29.35;;;;;;;11.36;61.20;96010.00;5037453;28;20033;-75
2022/10/22 08:39:02;;;;;;;61.45;31.38;;;;;;;11.33;61.69;96007.88;5036226;28;20501;-75
2022/10/22 08:41:29;;;;;;;57.45;32.13;;;;;;;11.54;61.60;96025.50;5037074;28;20102;-75
2022/10/22 08:44:00;;;;;;;61.03;33.40;;;;;;;11.59;61.76;96028.97;5037165;28;20045;-75
2022/10/22 08:46:37;;;;;;;52.92;32.13;;;;;;;11.65;61.11;96021.84;5037715;28;20041;-76
2022/10/22 08:49:08;;;;;;;62.17;33.95;;;;;;;11.45;60.86;95980.03;5036006;28;20048;-75
2022/10/22 08:51:39;;;;;;;56.55;30.88;;;;;;;11.67;60.86;96008.31;5037196;28;20068;-76
2022/10/22 08:54:17;;;;;;;52.53;30.38;;;;;;;11.84;60.93;96024.84;5036384;28;20052;-75
2022/10/22 08:56:53;;;;;;;53.83;29.35;;;;;;;11.60;60.68;95972.13;5037949;28;20041;-75
2022/10/22 08:59:26;;;;;;;56.10;28.75;;;;;;;12.01;60.63;96014.00;5037909;28;20045;-75
2022/10/22 09:01:53;;;;;;;44.22;26.88;;;;;;;11.95;59.94;96021.19;5037763;28;20487;-75
2022/10/22 09:04:31;;;;;;;48.83;26.27;;;;;;;11.95;60.16;96002.56;5037967;28;20156;-76
2022/10/22 09:06:58;;;;;;;45.22;26.20;;;;;;;11.96;59.87;96006.84;5037493;28;20041;-76
2022/10/22 09:09:30;;;;;;;39.33;22.92;;;;;;;11.81;59.78;95980.22;5037162;28;20048;-76
2022/10/22 09:11:58;;;;;;;46.42;23.50;;;;;;;11.51;59.97;95915.25;5035008;28;20045;-76
2022/10/22 09:14:25;;;;;;;40.60;22.00;;;;;;;12.23;59.44;96017.25;5035042;28;20594;-75
2022/10/22 09:17:15;;;;;;;41.95;24.00;;;;;;;12.22;59.50;96007.69;5035982;28;20129;-76
2022/10/22 09:20:04;;;;;;;44.08;23.92;;;;;;;12.40;59.58;96001.06;5035673;28;20042;-76
2022/10/22 09:22:54;;;;;;;47.72;26.83;;;;;;;11.90;59.09;95920.94;5031189;28;20053;-76
2022/10/22 09:25:24;;;;;;;42.33;23.83;;;;;;;12.29;59.21;95953.16;5013718;28;20235;-76
2022/10/22 09:27:51;;;;;;;43.65;23.58;;;;;;;12.58;58.92;95989.91;5017569;28;20392;-76
2022/10/22 09:30:20;;;;;;;38.20;23.20;;;;;;;12.44;58.37;95963.00;5017601;28;20045;-76
2022/10/22 09:32:49;;;;;;;45.20;24.00;;;;;;;12.59;58.92;95965.69;5015797;28;20052;-76
2022/10/22 09:35:22;;;;;;;41.80;23.38;;;;;;;12.87;58.53;95990.16;5027225;28;20055;-76
2022/10/22 09:37:52;;;;;;;44.50;24.33;;;;;;;12.99;57.99;95986.16;5037487;28;20065;-76
2022/10/22 09:40:18;;;;;;;43.17;23.75;;;;;;;13.00;57.90;95985.09;5035439;28;20079;-76
2022/10/22 09:42:45;;;;;;;39.85;21.52;;;;;;;13.12;58.00;95980.25;5038877;28;20124;-76
2022/10/22 09:45:19;;;;;;;41.08;23.10;;;;;;;12.98;57.71;95931.28;5018959;28;20057;-76
2022/10/22 09:47:45;;;;;;;39.85;21.38;;;;;;;13.05;57.45;95918.50;5034958;28;20056;-76
2022/10/22 09:50:40;;;;;;;44.40;22.27;;;;;;;13.88;57.71;95961.34;5020572;28;20041;-76
2022/10/22 09:53:18;;;;;;;36.75;21.25;;;;;;;14.86;55.17;95963.13;5035228;28;20041;-76
2022/10/22 09:55:52;;;;;;;37.40;20.77;;;;;;;15.69;51.34;95932.56;5028533;28;20095;-76
2022/10/22 09:58:19;;;;;;;37.35;20.60;;;;;;;17.02;48.70;95962.41;5029834;28;20155;-76
2022/10/22 10:00:54;;;;;;;41.95;20.27;;;;;;;18.03;46.29;95957.78;5029157;28;20049;-76
2022/10/22 10:03:27;;;;;;;33.20;19.20;;;;;;;18.50;43.23;95881.25;5029959;28;20084;-76
2022/10/22 10:05:58;;;;;;;30.88;18.60;;;;;;;19.96;42.51;95939.50;5020340;28;20154;-76
2022/10/22 10:08:24;;;;;;;28.20;18.67;;;;;;;20.65;40.25;95918.78;5018196;28;20886;-76
2022/10/22 10:10:55;;;;;;;33.22;19.20;;;;;;;21.35;39.24;95933.72;5019942;28;20822;-77
2022/10/22 10:13:45;;;;;;;35.60;17.67;;;;;;;21.82;37.96;95936.34;5033792;28;20037;-77
2022/10/22 10:16:24;;;;;;;34.80;19.45;;;;;;;21.70;36.73;95937.03;5037975;28;20299;-77
2022/10/22 10:19:05;;;;;;;30.33;17.48;;;;;;;21.55;36.86;95938.38;5038699;28;20565;-77
2022/10/22 10:21:52;;;;;;;31.67;17.80;;;;;;;21.71;36.83;95930.53;5040080;28;20551;-77
2022/10/22 10:24:36;;;;;;;28.65;18.27;;;;;;;21.82;36.74;95923.63;5037979;28;20053;-77
2022/10/22 10:27:24;;;;;;;33.95;18.05;;;;;;;21.66;36.59;95913.75;5040413;28;20048;-77
2022/10/22 10:30:02;;;;;;;33.50;18.52;;;;;;;21.72;36.38;95915.13;5038086;28;20043;-77
2022/10/22 10:33:04;;;;;;;28.10;17.33;;;;;;;21.88;36.18;95913.44;5039187;28;20056;-77
2022/10/22 10:35:48;;;;;;;31.73;17.00;;;;;;;21.83;36.17;95871.22;5038394;28;20045;-77
2022/10/22 10:38:34;;;;;;;29.85;16.50;;;;;;;21.83;36.56;95873.91;5038282;28;20130;-76
2022/10/22 10:41:03;;;;;;;27.33;17.20;;;;;;;22.24;36.02;95899.38;5038035;28;20048;-76
2022/10/22 10:44:13;;;;;;;36.40;15.35;;;;;;;22.13;36.31;95863.88;5039189;28;20053;-77
2022/10/22 10:46:38;;;;;;;29.38;16.73;;;;;;;22.23;36.38;95885.09;5037184;28;20144;-77
2022/10/22 10:49:32;;;;;;;28.58;15.65;;;;;;;22.39;35.57;95879.88;5037800;28;20082;-77
2022/10/22 10:52:15;;;;;;;34.55;16.27;;;;;;;22.50;35.45;95882.97;5009322;28;20053;-77
2022/10/22 10:54:51;;;;;;;27.23;16.77;;;;;;;22.23;35.21;95876.97;5016666;28;20465;-76
2022/10/22 10:57:44;;;;;;;33.40;16.45;;;;;;;22.46;35.14;95869.31;5026493;28;20476;-77
2022/10/22 11:00:15;;;;;;;35.28;15.07;;;;;;;22.12;35.76;95811.00;5039956;28;20053;-77
2022/10/22 11:02:59;;;;;;;24.70;14.73;;;;;;;22.22;36.93;95855.69;5023256;28;20073;-76
2022/10/22 11:05:31;;;;;;;28.35;14.25;;;;;;;22.29;36.70;95839.75;5017378;28;20584;-76
2022/10/22 11:08:02;;;;;;;27.45;14.60;;;;;;;21.96;36.38;95769.47;5019229;28;20056;-77
2022/10/22 11:10:34;;;;;;;31.92;14.60;;;;;;;22.24;35.73;95791.31;5019068;28;20060;-76
2022/10/22 11:13:13;;;;;;;31.33;17.60;;;;;;;22.29;35.36;95829.72;5019335;28;20183;-76
2022/10/22 11:15:40;;;;;;;36.55;15.07;;;;;;;22.24;35.71;95819.13;5033590;28;20148;-78
2022/10/22 11:18:41;;;;;;;29.85;14.25;;;;;;;21.91;36.40;95769.66;5027035;28;20046;-76
2022/10/22 11:21:15;;;;;;;;;;;;;;;22.34;36.63;95809.81;5011011;28;20057;-77
2022/10/22 11:23:59;;;;;;;31.77;14.70;;;;;;;22.05;36.74;95782.94;5014768;28;19975;-77
2022/10/22 11:26:37;;;;;;;34.45;14.90;;;;;;;22.21;35.82;95764.97;5038070;28;20053;-77
2022/10/22 11:29:08;;;;;;;27.17;15.02;;;;;;;22.65;35.75;95802.03;5038603;28;20113;-77
2022/10/22 11:31:34;;;;;;;25.98;14.50;;;;;;;22.79;35.53;95801.75;5038196;28;20079;-77
2022/10/22 11:34:14;;;;;;;23.58;14.02;;;;;;;23.02;35.45;95802.09;5036555;28;20601;-77